Terminal Aerodrome Forecast
Issued by NWS Portland, OR

Home | Current Version | Previous Version | Text Only | Print | Product List | Glossary On
Versions: 1 2 3 4 5 6 7 8 9 10 11 12 13 14 15 16 17 18 19 20 21 22 23 24 25 26 27 28 29 30 31 32 33 34 35 36
000
FTUS46 KPQR 312320
TAFAST
TAF
KAST 312320Z 0100/0124 31014KT P6SM SKC
     FM010500 29005KT 4SM BR SCT008
     FM010900 31006KT 2SM BR SCT004 OVC008
     FM011700 31004KT P6SM FEW008=

USA.gov is the U.S. government's official web portal to all federal, state and local government web resources and services.